This is the latest recevied weather packets stored in our database for station/object KB2UHF-8. If no packets are shown the sender has not sent any weather packets the latest 10 day(s).
| Time | Temp. | Humidity | Pressure | Rain* | Wind** | Luminosity | Snow |
|---|---|---|---|---|---|---|---|
| 1778084136 | 6.11° C | 52% | 1015.1 hPa | 0 mm | - | 944 W/m² | - |
| 1778079336 | 5.56° C | 55% | 1015.2 hPa | 0 mm | - | 666 W/m² | - |
| 1778076316 | 5° C | 58% | 1015 hPa | 0 mm | - | 529 W/m² | - |
| 1778075716 | 4.44° C | 56% | 1014.8 hPa | 0 mm | - | 503 W/m² | - |
| 1778075116 | 5° C | 59% | 1014.8 hPa | 0 mm | - | 472 W/m² | - |
| 1778073916 | 4.44° C | 60% | 1014.7 hPa | 0 mm | - | 411 W/m² | - |
| 1778064316 | 1.11° C | 75% | 1012.9 hPa | 0 mm | - | 0 W/m² | - |
| 1778062516 | 1.11° C | 76% | 1012.8 hPa | 0 mm | - | 0 W/m² | - |
| 1778057716 | 2.22° C | 71% | 1012.3 hPa | 0 mm | - | 0 W/m² | - |
| 1778048115 | 2.78° C | 69% | 1011.6 hPa | 0 mm | - | 0 W/m² | - |
| 1778046915 | 2.78° C | 66% | 1011.8 hPa | 0 mm | - | 0 W/m² | - |
| 1778039716 | 5° C | 54% | 1011.1 hPa | 0 mm | - | 0 W/m² | - |
| 1778037916 | 5.56° C | 52% | 1011.2 hPa | 0 mm | - | 0 W/m² | - |
| 1778036716 | 6.11° C | 51% | 1011.2 hPa | 0 mm | - | 0 W/m² | - |
| 1778034916 | 6.67° C | 48% | 1011 hPa | 0 mm | - | 0 W/m² | - |
| 1778030716 | 7.78° C | 43% | 1009.9 hPa | 0 mm | - | 0 W/m² | - |
| 1778027716 | 8.89° C | 42% | 1009.4 hPa | 0 mm | - | 27 W/m² | - |
| 1778025916 | 9.44° C | 42% | 1009.3 hPa | 0 mm | - | 80 W/m² | - |
| 1778022916 | 10° C | 39% | 1009.1 hPa | 0 mm | - | 293 W/m² | - |
| 1778015115 | 11.11° C | 39% | 1009.1 hPa | 0 mm | - | 721 W/m² | - |
| 1778012116 | 10° C | 38% | 1009.3 hPa | 0 mm | - | 259 W/m² | - |
| 1778006715 | 10.56° C | 35% | 1009.6 hPa | 0 mm | - | 992 W/m² | - |
| 1778004315 | 11.11° C | 36% | 1009.3 hPa | 0 mm | - | 931 W/m² | - |
| 1778001317 | 9.44° C | 40% | 1009.3 hPa | 0 mm | - | 1043 W/m² | - |
| 1777997117 | 8.89° C | 37% | 1009.1 hPa | 0 mm | - | 883 W/m² | - |
* Rain latest hour (hover to see other rain measurements)
** Current wind speed in m/s (hover to see current wind gust speed)